sensor_id;sensor_type;location;lat;lon;timestamp;temperature;humidity
61255;DHT22;47128;47.530;8.584;2022-11-15T00:00:02;6.70;99.90
61255;DHT22;47128;47.530;8.584;2022-11-15T00:02:27;6.70;99.90
61255;DHT22;47128;47.530;8.584;2022-11-15T00:04:53;6.70;99.90
61255;DHT22;47128;47.530;8.584;2022-11-15T00:07:18;6.70;99.90
61255;DHT22;47128;47.530;8.584;2022-11-15T00:09:44;6.60;99.90
61255;DHT22;47128;47.530;8.584;2022-11-15T00:12:09;6.50;99.90
61255;DHT22;47128;47.530;8.584;2022-11-15T00:14:35;6.40;99.90
61255;DHT22;47128;47.530;8.584;2022-11-15T00:17:00;6.40;99.90
61255;DHT22;47128;47.530;8.584;2022-11-15T00:19:26;6.40;99.90
61255;DHT22;47128;47.530;8.584;2022-11-15T00:21:51;6.50;99.90
61255;DHT22;47128;47.530;8.584;2022-11-15T00:24:17;6.50;99.90
61255;DHT22;47128;47.530;8.584;2022-11-15T00:26:42;6.50;99.90
61255;DHT22;47128;47.530;8.584;2022-11-15T00:29:08;6.40;99.90
61255;DHT22;47128;47.530;8.584;2022-11-15T00:31:33;6.50;99.90
61255;DHT22;47128;47.530;8.584;2022-11-15T00:33:59;6.40;99.90
61255;DHT22;47128;47.530;8.584;2022-11-15T00:36:24;6.40;99.90
61255;DHT22;47128;47.530;8.584;2022-11-15T00:38:50;6.30;99.90
61255;DHT22;47128;47.530;8.584;2022-11-15T00:41:15;6.30;99.90
61255;DHT22;47128;47.530;8.584;2022-11-15T00:43:41;6.30;99.90
61255;DHT22;47128;47.530;8.584;2022-11-15T00:46:09;6.30;99.90
61255;DHT22;47128;47.530;8.584;2022-11-15T00:48:35;6.20;99.90
61255;DHT22;47128;47.530;8.584;2022-11-15T00:51:00;6.20;99.90
61255;DHT22;47128;47.530;8.584;2022-11-15T00:53:26;6.20;99.90
61255;DHT22;47128;47.530;8.584;2022-11-15T00:55:51;6.20;99.90
61255;DHT22;47128;47.530;8.584;2022-11-15T00:58:17;6.20;99.90
61255;DHT22;47128;47.530;8.584;2022-11-15T01:00:42;6.20;99.90
61255;DHT22;47128;47.530;8.584;2022-11-15T01:03:08;6.20;99.90
61255;DHT22;47128;47.530;8.584;2022-11-15T01:05:33;6.20;99.90
61255;DHT22;47128;47.530;8.584;2022-11-15T01:07:59;6.20;99.90
61255;DHT22;47128;47.530;8.584;2022-11-15T01:10:24;6.30;99.90
61255;DHT22;47128;47.530;8.584;2022-11-15T01:12:51;6.20;99.90
61255;DHT22;47128;47.530;8.584;2022-11-15T01:15:16;6.20;99.90
61255;DHT22;47128;47.530;8.584;2022-11-15T01:17:42;6.30;99.90
61255;DHT22;47128;47.530;8.584;2022-11-15T01:20:07;6.30;99.90
61255;DHT22;47128;47.530;8.584;2022-11-15T01:22:33;6.30;99.90
61255;DHT22;47128;47.530;8.584;2022-11-15T01:24:59;6.30;99.90
61255;DHT22;47128;47.530;8.584;2022-11-15T01:27:24;6.30;99.90
61255;DHT22;47128;47.530;8.584;2022-11-15T01:29:50;6.30;99.90
61255;DHT22;47128;47.530;8.584;2022-11-15T01:32:15;6.30;99.90
61255;DHT22;47128;47.530;8.584;2022-11-15T01:34:41;6.40;99.90
61255;DHT22;47128;47.530;8.584;2022-11-15T01:37:06;6.30;99.90
61255;DHT22;47128;47.530;8.584;2022-11-15T01:39:32;6.30;99.90
61255;DHT22;47128;47.530;8.584;2022-11-15T01:41:57;6.30;99.90
61255;DHT22;47128;47.530;8.584;2022-11-15T01:47:08;6.30;99.90
61255;DHT22;47128;47.530;8.584;2022-11-15T01:49:35;6.30;99.90
61255;DHT22;47128;47.530;8.584;2022-11-15T01:52:03;6.30;99.90
61255;DHT22;47128;47.530;8.584;2022-11-15T01:54:30;6.30;99.90
61255;DHT22;47128;47.530;8.584;2022-11-15T01:56:59;6.30;99.90
61255;DHT22;47128;47.530;8.584;2022-11-15T01:59:26;6.30;99.90
61255;DHT22;47128;47.530;8.584;2022-11-15T02:01:52;6.30;99.90
61255;DHT22;47128;47.530;8.584;2022-11-15T02:04:22;6.30;99.90
61255;DHT22;47128;47.530;8.584;2022-11-15T02:06:49;6.30;99.90
61255;DHT22;47128;47.530;8.584;2022-11-15T02:09:15;6.30;99.90
61255;DHT22;47128;47.530;8.584;2022-11-15T02:11:41;6.40;99.90
61255;DHT22;47128;47.530;8.584;2022-11-15T02:14:07;6.40;99.90
61255;DHT22;47128;47.530;8.584;2022-11-15T02:29:45;6.50;99.90
61255;DHT22;47128;47.530;8.584;2022-11-15T02:32:19;6.60;99.90
61255;DHT22;47128;47.530;8.584;2022-11-15T02:37:44;6.70;99.90
61255;DHT22;47128;47.530;8.584;2022-11-15T02:40:26;6.60;99.90
61255;DHT22;47128;47.530;8.584;2022-11-15T02:42:55;6.60;99.90
61255;DHT22;47128;47.530;8.584;2022-11-15T02:45:41;6.60;99.90
61255;DHT22;47128;47.530;8.584;2022-11-15T02:48:09;6.60;99.90
61255;DHT22;47128;47.530;8.584;2022-11-15T02:50:35;6.60;99.90
61255;DHT22;47128;47.530;8.584;2022-11-15T02:53:01;6.60;99.90
61255;DHT22;47128;47.530;8.584;2022-11-15T02:55:29;6.60;99.90
61255;DHT22;47128;47.530;8.584;2022-11-15T03:00:34;6.60;99.90
61255;DHT22;47128;47.530;8.584;2022-11-15T03:03:05;6.60;99.90
61255;DHT22;47128;47.530;8.584;2022-11-15T03:08:22;6.70;99.90
61255;DHT22;47128;47.530;8.584;2022-11-15T03:13:27;6.80;99.90
61255;DHT22;47128;47.530;8.584;2022-11-15T03:18:40;6.70;99.90
61255;DHT22;47128;47.530;8.584;2022-11-15T03:21:07;6.70;99.90
61255;DHT22;47128;47.530;8.584;2022-11-15T03:23:33;6.70;99.90
61255;DHT22;47128;47.530;8.584;2022-11-15T03:26:00;6.70;99.90
61255;DHT22;47128;47.530;8.584;2022-11-15T03:28:36;6.70;99.90
61255;DHT22;47128;47.530;8.584;2022-11-15T03:31:03;6.70;99.90
61255;DHT22;47128;47.530;8.584;2022-11-15T03:33:53;6.70;99.90
61255;DHT22;47128;47.530;8.584;2022-11-15T03:36:21;6.70;99.90
61255;DHT22;47128;47.530;8.584;2022-11-15T03:38:47;6.70;99.90
61255;DHT22;47128;47.530;8.584;2022-11-15T03:41:23;6.80;99.90
61255;DHT22;47128;47.530;8.584;2022-11-15T03:43:52;6.70;99.90
61255;DHT22;47128;47.530;8.584;2022-11-15T03:46:34;6.70;99.90
61255;DHT22;47128;47.530;8.584;2022-11-15T03:49:10;6.70;99.90
61255;DHT22;47128;47.530;8.584;2022-11-15T03:51:37;6.60;99.90
61255;DHT22;47128;47.530;8.584;2022-11-15T03:54:05;6.60;99.90
61255;DHT22;47128;47.530;8.584;2022-11-15T03:56:31;6.70;99.90
61255;DHT22;47128;47.530;8.584;2022-11-15T03:58:56;6.60;99.90
61255;DHT22;47128;47.530;8.584;2022-11-15T04:01:22;6.60;99.90
61255;DHT22;47128;47.530;8.584;2022-11-15T04:03:47;6.60;99.90
61255;DHT22;47128;47.530;8.584;2022-11-15T04:06:13;6.60;99.90
61255;DHT22;47128;47.530;8.584;2022-11-15T04:08:38;6.60;99.90
61255;DHT22;47128;47.530;8.584;2022-11-15T04:11:04;6.60;99.90
61255;DHT22;47128;47.530;8.584;2022-11-15T04:13:29;6.60;99.90
61255;DHT22;47128;47.530;8.584;2022-11-15T04:15:55;6.60;99.90
61255;DHT22;47128;47.530;8.584;2022-11-15T04:18:20;6.60;99.90
61255;DHT22;47128;47.530;8.584;2022-11-15T04:20:46;6.50;99.90
61255;DHT22;47128;47.530;8.584;2022-11-15T04:23:30;6.60;99.90
61255;DHT22;47128;47.530;8.584;2022-11-15T04:26:15;6.60;99.90
61255;DHT22;47128;47.530;8.584;2022-11-15T04:28:41;6.50;99.90
61255;DHT22;47128;47.530;8.584;2022-11-15T04:31:26;6.50;99.90
61255;DHT22;47128;47.530;8.584;2022-11-15T04:33:51;6.50;99.90
61255;DHT22;47128;47.530;8.584;2022-11-15T04:36:17;6.50;99.90
61255;DHT22;47128;47.530;8.584;2022-11-15T04:39:01;6.50;99.90
61255;DHT22;47128;47.530;8.584;2022-11-15T04:41:27;6.50;99.90
61255;DHT22;47128;47.530;8.584;2022-11-15T04:43:54;6.40;99.90
61255;DHT22;47128;47.530;8.584;2022-11-15T04:46:20;6.40;99.90
61255;DHT22;47128;47.530;8.584;2022-11-15T04:48:45;6.50;99.90
61255;DHT22;47128;47.530;8.584;2022-11-15T04:51:11;6.40;99.90
61255;DHT22;47128;47.530;8.584;2022-11-15T04:53:36;6.40;99.90
61255;DHT22;47128;47.530;8.584;2022-11-15T04:56:02;6.40;99.90
61255;DHT22;47128;47.530;8.584;2022-11-15T04:58:27;6.40;99.90
61255;DHT22;47128;47.530;8.584;2022-11-15T05:00:53;6.40;99.90
61255;DHT22;47128;47.530;8.584;2022-11-15T05:03:18;6.30;99.90
61255;DHT22;47128;47.530;8.584;2022-11-15T05:06:03;6.40;99.90
61255;DHT22;47128;47.530;8.584;2022-11-15T05:08:28;6.40;99.90
61255;DHT22;47128;47.530;8.584;2022-11-15T05:10:54;6.40;99.90
61255;DHT22;47128;47.530;8.584;2022-11-15T05:13:19;6.40;99.90
61255;DHT22;47128;47.530;8.584;2022-11-15T05:15:45;6.40;99.90
61255;DHT22;47128;47.530;8.584;2022-11-15T05:18:10;6.40;99.90
61255;DHT22;47128;47.530;8.584;2022-11-15T05:20:36;6.30;99.90
61255;DHT22;47128;47.530;8.584;2022-11-15T05:23:01;6.30;99.90
61255;DHT22;47128;47.530;8.584;2022-11-15T05:25:27;6.40;99.90
61255;DHT22;47128;47.530;8.584;2022-11-15T05:27:54;6.40;99.90
61255;DHT22;47128;47.530;8.584;2022-11-15T05:30:20;6.40;99.90
61255;DHT22;47128;47.530;8.584;2022-11-15T05:32:45;6.30;99.90
61255;DHT22;47128;47.530;8.584;2022-11-15T05:35:30;6.30;99.90
61255;DHT22;47128;47.530;8.584;2022-11-15T05:37:57;6.30;99.90
61255;DHT22;47128;47.530;8.584;2022-11-15T05:40:22;6.20;99.90
61255;DHT22;47128;47.530;8.584;2022-11-15T05:42:48;6.20;99.90
61255;DHT22;47128;47.530;8.584;2022-11-15T05:45:14;6.20;99.90
61255;DHT22;47128;47.530;8.584;2022-11-15T05:47:40;6.20;99.90
61255;DHT22;47128;47.530;8.584;2022-11-15T05:50:05;6.20;99.90
61255;DHT22;47128;47.530;8.584;2022-11-15T05:52:32;6.30;99.90
61255;DHT22;47128;47.530;8.584;2022-11-15T05:55:00;6.30;99.90
61255;DHT22;47128;47.530;8.584;2022-11-15T05:57:26;6.30;99.90
61255;DHT22;47128;47.530;8.584;2022-11-15T05:59:52;6.30;99.90
61255;DHT22;47128;47.530;8.584;2022-11-15T06:02:19;6.30;99.90
61255;DHT22;47128;47.530;8.584;2022-11-15T06:04:49;6.30;99.90
61255;DHT22;47128;47.530;8.584;2022-11-15T06:07:14;6.20;99.90
61255;DHT22;47128;47.530;8.584;2022-11-15T06:09:40;6.20;99.90
61255;DHT22;47128;47.530;8.584;2022-11-15T06:12:05;6.20;99.90
61255;DHT22;47128;47.530;8.584;2022-11-15T06:14:31;6.30;99.90
61255;DHT22;47128;47.530;8.584;2022-11-15T06:16:56;6.30;99.90
61255;DHT22;47128;47.530;8.584;2022-11-15T06:19:25;6.30;99.90
61255;DHT22;47128;47.530;8.584;2022-11-15T06:21:50;6.20;99.90
61255;DHT22;47128;47.530;8.584;2022-11-15T06:24:16;6.20;99.90
61255;DHT22;47128;47.530;8.584;2022-11-15T06:26:41;6.20;99.90
61255;DHT22;47128;47.530;8.584;2022-11-15T06:29:07;6.10;99.90
61255;DHT22;47128;47.530;8.584;2022-11-15T06:31:33;6.20;99.90
61255;DHT22;47128;47.530;8.584;2022-11-15T06:33:58;6.20;99.90
61255;DHT22;47128;47.530;8.584;2022-11-15T06:36:24;6.20;99.90
61255;DHT22;47128;47.530;8.584;2022-11-15T06:38:49;6.20;99.90
61255;DHT22;47128;47.530;8.584;2022-11-15T06:41:15;6.30;99.90
61255;DHT22;47128;47.530;8.584;2022-11-15T06:43:42;6.20;99.90
61255;DHT22;47128;47.530;8.584;2022-11-15T06:46:07;6.30;99.90
61255;DHT22;47128;47.530;8.584;2022-11-15T06:48:33;6.30;99.90
61255;DHT22;47128;47.530;8.584;2022-11-15T06:51:00;6.30;99.90
61255;DHT22;47128;47.530;8.584;2022-11-15T06:53:25;6.30;99.90
61255;DHT22;47128;47.530;8.584;2022-11-15T06:55:51;6.30;99.90
61255;DHT22;47128;47.530;8.584;2022-11-15T06:58:17;6.40;99.90
61255;DHT22;47128;47.530;8.584;2022-11-15T07:00:46;6.40;99.90
61255;DHT22;47128;47.530;8.584;2022-11-15T07:03:11;6.40;99.90
61255;DHT22;47128;47.530;8.584;2022-11-15T07:05:39;6.40;99.90
61255;DHT22;47128;47.530;8.584;2022-11-15T07:08:05;6.40;99.90
61255;DHT22;47128;47.530;8.584;2022-11-15T07:10:38;6.40;99.90
61255;DHT22;47128;47.530;8.584;2022-11-15T07:13:06;6.50;99.90
61255;DHT22;47128;47.530;8.584;2022-11-15T07:15:32;6.60;99.90
61255;DHT22;47128;47.530;8.584;2022-11-15T07:18:01;6.60;99.90
61255;DHT22;47128;47.530;8.584;2022-11-15T07:20:26;6.70;99.90
61255;DHT22;47128;47.530;8.584;2022-11-15T07:22:58;6.70;99.90
61255;DHT22;47128;47.530;8.584;2022-11-15T07:25:25;6.70;99.90
61255;DHT22;47128;47.530;8.584;2022-11-15T07:28:13;6.70;99.90
61255;DHT22;47128;47.530;8.584;2022-11-15T07:30:56;6.60;99.90
61255;DHT22;47128;47.530;8.584;2022-11-15T07:33:29;6.60;99.90
61255;DHT22;47128;47.530;8.584;2022-11-15T07:35:58;6.60;99.90
61255;DHT22;47128;47.530;8.584;2022-11-15T07:38:29;6.60;99.90
61255;DHT22;47128;47.530;8.584;2022-11-15T07:41:06;6.50;99.90
61255;DHT22;47128;47.530;8.584;2022-11-15T07:43:33;6.50;99.90
61255;DHT22;47128;47.530;8.584;2022-11-15T07:46:17;6.70;99.90
61255;DHT22;47128;47.530;8.584;2022-11-15T07:57:49;6.90;99.90
61255;DHT22;47128;47.530;8.584;2022-11-15T08:00:27;7.00;99.90
61255;DHT22;47128;47.530;8.584;2022-11-15T08:03:36;7.10;99.90
61255;DHT22;47128;47.530;8.584;2022-11-15T08:10:47;7.40;99.90
61255;DHT22;47128;47.530;8.584;2022-11-15T08:18:36;7.80;99.90
61255;DHT22;47128;47.530;8.584;2022-11-15T08:21:13;7.90;99.90
61255;DHT22;47128;47.530;8.584;2022-11-15T08:23:45;7.90;99.90
61255;DHT22;47128;47.530;8.584;2022-11-15T08:31:55;8.10;99.90
61255;DHT22;47128;47.530;8.584;2022-11-15T08:34:43;8.20;99.90
61255;DHT22;47128;47.530;8.584;2022-11-15T08:37:24;8.20;99.90
61255;DHT22;47128;47.530;8.584;2022-11-15T08:39:51;8.20;99.90
61255;DHT22;47128;47.530;8.584;2022-11-15T08:45:44;8.30;99.90
61255;DHT22;47128;47.530;8.584;2022-11-15T08:48:32;8.40;99.90
61255;DHT22;47128;47.530;8.584;2022-11-15T08:51:24;8.40;99.90
61255;DHT22;47128;47.530;8.584;2022-11-15T08:53:54;8.60;99.90
61255;DHT22;47128;47.530;8.584;2022-11-15T08:56:34;8.50;99.90
61255;DHT22;47128;47.530;8.584;2022-11-15T08:59:01;8.50;99.90
61255;DHT22;47128;47.530;8.584;2022-11-15T09:01:29;8.50;99.90
61255;DHT22;47128;47.530;8.584;2022-11-15T09:03:57;8.60;99.90
61255;DHT22;47128;47.530;8.584;2022-11-15T09:06:30;8.60;99.90
61255;DHT22;47128;47.530;8.584;2022-11-15T09:08:56;8.70;99.90
61255;DHT22;47128;47.530;8.584;2022-11-15T09:11:22;8.70;99.90
61255;DHT22;47128;47.530;8.584;2022-11-15T09:13:49;8.80;99.90
61255;DHT22;47128;47.530;8.584;2022-11-15T09:19:30;8.90;99.90
61255;DHT22;47128;47.530;8.584;2022-11-15T09:21:56;8.80;99.90
61255;DHT22;47128;47.530;8.584;2022-11-15T09:24:25;8.90;99.90
61255;DHT22;47128;47.530;8.584;2022-11-15T09:26:51;8.80;99.90
61255;DHT22;47128;47.530;8.584;2022-11-15T09:29:18;8.80;99.90
61255;DHT22;47128;47.530;8.584;2022-11-15T09:31:46;9.00;99.90
61255;DHT22;47128;47.530;8.584;2022-11-15T09:37:07;9.20;99.90
61255;DHT22;47128;47.530;8.584;2022-11-15T09:39:33;9.20;99.90
61255;DHT22;47128;47.530;8.584;2022-11-15T09:45:02;9.30;99.90
61255;DHT22;47128;47.530;8.584;2022-11-15T09:50:39;9.30;99.90
61255;DHT22;47128;47.530;8.584;2022-11-15T09:56:20;9.20;99.90
61255;DHT22;47128;47.530;8.584;2022-11-15T10:04:21;9.20;99.90
61255;DHT22;47128;47.530;8.584;2022-11-15T10:06:54;9.30;99.90
61255;DHT22;47128;47.530;8.584;2022-11-15T10:09:26;9.20;99.90
61255;DHT22;47128;47.530;8.584;2022-11-15T10:11:55;9.30;99.90
61255;DHT22;47128;47.530;8.584;2022-11-15T10:14:23;9.20;99.90
61255;DHT22;47128;47.530;8.584;2022-11-15T10:22:29;9.30;99.90
61255;DHT22;47128;47.530;8.584;2022-11-15T10:27:30;9.30;99.90
61255;DHT22;47128;47.530;8.584;2022-11-15T10:30:03;9.50;99.90
61255;DHT22;47128;47.530;8.584;2022-11-15T10:32:39;9.60;99.90
61255;DHT22;47128;47.530;8.584;2022-11-15T10:35:30;9.70;99.90
61255;DHT22;47128;47.530;8.584;2022-11-15T10:38:10;9.70;99.90
61255;DHT22;47128;47.530;8.584;2022-11-15T10:40:41;9.80;99.90
61255;DHT22;47128;47.530;8.584;2022-11-15T10:43:17;9.90;99.90
61255;DHT22;47128;47.530;8.584;2022-11-15T10:45:54;9.90;99.90
61255;DHT22;47128;47.530;8.584;2022-11-15T10:48:21;10.00;99.90
61255;DHT22;47128;47.530;8.584;2022-11-15T10:50:55;10.00;99.90
61255;DHT22;47128;47.530;8.584;2022-11-15T10:53:31;10.10;99.90
61255;DHT22;47128;47.530;8.584;2022-11-15T10:56:11;10.10;99.90
61255;DHT22;47128;47.530;8.584;2022-11-15T10:58:38;10.00;99.90
61255;DHT22;47128;47.530;8.584;2022-11-15T11:01:12;10.10;99.90
61255;DHT22;47128;47.530;8.584;2022-11-15T11:03:39;10.10;99.90
61255;DHT22;47128;47.530;8.584;2022-11-15T11:08:31;10.10;99.90
61255;DHT22;47128;47.530;8.584;2022-11-15T11:13:34;10.20;99.90
61255;DHT22;47128;47.530;8.584;2022-11-15T11:21:22;10.30;99.90
61255;DHT22;47128;47.530;8.584;2022-11-15T11:23:56;10.20;99.90
61255;DHT22;47128;47.530;8.584;2022-11-15T11:26:29;10.20;99.90
61255;DHT22;47128;47.530;8.584;2022-11-15T11:34:34;10.50;99.90
61255;DHT22;47128;47.530;8.584;2022-11-15T11:42:26;11.00;99.90
61255;DHT22;47128;47.530;8.584;2022-11-15T11:45:18;11.10;99.90
61255;DHT22;47128;47.530;8.584;2022-11-15T11:50:22;11.20;99.90
61255;DHT22;47128;47.530;8.584;2022-11-15T11:55:29;11.20;99.90
61255;DHT22;47128;47.530;8.584;2022-11-15T11:58:03;11.30;99.90
61255;DHT22;47128;47.530;8.584;2022-11-15T12:00:31;11.30;99.90
61255;DHT22;47128;47.530;8.584;2022-11-15T12:05:46;11.30;99.90
61255;DHT22;47128;47.530;8.584;2022-11-15T12:08:23;11.30;99.90
61255;DHT22;47128;47.530;8.584;2022-11-15T12:11:06;11.40;99.90
61255;DHT22;47128;47.530;8.584;2022-11-15T12:13:33;11.50;99.90
61255;DHT22;47128;47.530;8.584;2022-11-15T12:16:13;11.60;99.90
61255;DHT22;47128;47.530;8.584;2022-11-15T12:18:44;11.70;99.90
61255;DHT22;47128;47.530;8.584;2022-11-15T12:24:04;12.20;99.90
61255;DHT22;47128;47.530;8.584;2022-11-15T12:26:40;11.90;99.90
61255;DHT22;47128;47.530;8.584;2022-11-15T12:34:59;11.90;99.90
61255;DHT22;47128;47.530;8.584;2022-11-15T12:42:40;12.00;99.90
61255;DHT22;47128;47.530;8.584;2022-11-15T12:45:30;12.00;99.90
61255;DHT22;47128;47.530;8.584;2022-11-15T12:54:58;11.60;99.90
61255;DHT22;47128;47.530;8.584;2022-11-15T13:02:32;11.60;99.90
61255;DHT22;47128;47.530;8.584;2022-11-15T13:17:49;11.60;99.90
61255;DHT22;47128;47.530;8.584;2022-11-15T13:20:21;11.60;99.90
61255;DHT22;47128;47.530;8.584;2022-11-15T13:23:00;11.70;99.90
61255;DHT22;47128;47.530;8.584;2022-11-15T13:28:20;11.60;99.90
61255;DHT22;47128;47.530;8.584;2022-11-15T13:33:55;11.60;99.90
61255;DHT22;47128;47.530;8.584;2022-11-15T13:36:23;11.60;99.90
61255;DHT22;47128;47.530;8.584;2022-11-15T13:41:26;11.60;99.90
61255;DHT22;47128;47.530;8.584;2022-11-15T13:43:55;11.60;99.90
61255;DHT22;47128;47.530;8.584;2022-11-15T13:46:32;11.60;99.90
61255;DHT22;47128;47.530;8.584;2022-11-15T13:49:05;11.60;99.90
61255;DHT22;47128;47.530;8.584;2022-11-15T13:51:40;11.60;99.90
61255;DHT22;47128;47.530;8.584;2022-11-15T13:54:19;11.60;99.90
61255;DHT22;47128;47.530;8.584;2022-11-15T13:56:49;11.40;99.90
61255;DHT22;47128;47.530;8.584;2022-11-15T14:05:18;11.30;99.90
61255;DHT22;47128;47.530;8.584;2022-11-15T14:08:12;11.20;99.90
61255;DHT22;47128;47.530;8.584;2022-11-15T14:10:42;11.20;99.90
61255;DHT22;47128;47.530;8.584;2022-11-15T14:13:32;11.10;99.90
61255;DHT22;47128;47.530;8.584;2022-11-15T14:16:13;11.00;99.90
61255;DHT22;47128;47.530;8.584;2022-11-15T14:18:43;11.10;99.90
61255;DHT22;47128;47.530;8.584;2022-11-15T14:21:10;11.10;99.90
61255;DHT22;47128;47.530;8.584;2022-11-15T14:26:34;11.10;99.90
61255;DHT22;47128;47.530;8.584;2022-11-15T14:32:05;11.00;99.90
61255;DHT22;47128;47.530;8.584;2022-11-15T14:34:32;11.10;99.90
61255;DHT22;47128;47.530;8.584;2022-11-15T14:36:58;11.10;99.90
61255;DHT22;47128;47.530;8.584;2022-11-15T14:44:41;11.00;99.90
61255;DHT22;47128;47.530;8.584;2022-11-15T14:47:07;11.00;99.90
61255;DHT22;47128;47.530;8.584;2022-11-15T14:49:35;10.90;99.90
61255;DHT22;47128;47.530;8.584;2022-11-15T14:52:03;10.90;99.90
61255;DHT22;47128;47.530;8.584;2022-11-15T14:54:36;10.80;99.90
61255;DHT22;47128;47.530;8.584;2022-11-15T14:57:02;10.90;99.90
61255;DHT22;47128;47.530;8.584;2022-11-15T14:59:35;10.90;99.90
61255;DHT22;47128;47.530;8.584;2022-11-15T15:02:01;10.80;99.90
61255;DHT22;47128;47.530;8.584;2022-11-15T15:04:27;10.80;99.90
61255;DHT22;47128;47.530;8.584;2022-11-15T15:06:54;10.70;99.90
61255;DHT22;47128;47.530;8.584;2022-11-15T15:09:19;10.70;99.90
61255;DHT22;47128;47.530;8.584;2022-11-15T15:11:46;10.60;99.90
61255;DHT22;47128;47.530;8.584;2022-11-15T15:14:12;10.60;99.90
61255;DHT22;47128;47.530;8.584;2022-11-15T15:16:41;10.50;99.90
61255;DHT22;47128;47.530;8.584;2022-11-15T15:19:10;10.50;99.90
61255;DHT22;47128;47.530;8.584;2022-11-15T15:24:04;10.50;99.90
61255;DHT22;47128;47.530;8.584;2022-11-15T15:26:37;10.50;99.90
61255;DHT22;47128;47.530;8.584;2022-11-15T15:29:08;10.60;99.90
61255;DHT22;47128;47.530;8.584;2022-11-15T15:31:37;10.60;99.90
61255;DHT22;47128;47.530;8.584;2022-11-15T15:34:03;10.50;99.90
61255;DHT22;47128;47.530;8.584;2022-11-15T15:36:29;10.50;99.90
61255;DHT22;47128;47.530;8.584;2022-11-15T15:38:59;10.50;99.90
61255;DHT22;47128;47.530;8.584;2022-11-15T15:41:28;10.50;99.90
61255;DHT22;47128;47.530;8.584;2022-11-15T15:46:23;10.50;99.90
61255;DHT22;47128;47.530;8.584;2022-11-15T15:48:49;10.50;99.90
61255;DHT22;47128;47.530;8.584;2022-11-15T15:51:19;10.40;99.90
61255;DHT22;47128;47.530;8.584;2022-11-15T15:53:45;10.40;99.90
61255;DHT22;47128;47.530;8.584;2022-11-15T15:56:11;10.30;99.90
61255;DHT22;47128;47.530;8.584;2022-11-15T15:58:41;10.30;99.90
61255;DHT22;47128;47.530;8.584;2022-11-15T16:01:20;10.30;99.90
61255;DHT22;47128;47.530;8.584;2022-11-15T16:06:49;10.30;99.90
61255;DHT22;47128;47.530;8.584;2022-11-15T16:09:23;10.30;99.90
61255;DHT22;47128;47.530;8.584;2022-11-15T16:12:09;10.30;99.90
61255;DHT22;47128;47.530;8.584;2022-11-15T16:14:34;10.40;99.90
61255;DHT22;47128;47.530;8.584;2022-11-15T16:17:00;10.30;99.90
61255;DHT22;47128;47.530;8.584;2022-11-15T16:19:27;10.30;99.90
61255;DHT22;47128;47.530;8.584;2022-11-15T16:21:54;10.30;99.90
61255;DHT22;47128;47.530;8.584;2022-11-15T16:24:25;10.30;99.90
61255;DHT22;47128;47.530;8.584;2022-11-15T16:26:50;10.20;99.90
61255;DHT22;47128;47.530;8.584;2022-11-15T16:29:16;10.20;99.90
61255;DHT22;47128;47.530;8.584;2022-11-15T16:31:42;10.20;99.90
61255;DHT22;47128;47.530;8.584;2022-11-15T16:34:07;10.20;99.90
61255;DHT22;47128;47.530;8.584;2022-11-15T16:36:36;10.20;99.90
61255;DHT22;47128;47.530;8.584;2022-11-15T16:39:02;10.20;99.90
61255;DHT22;47128;47.530;8.584;2022-11-15T16:41:31;10.10;99.90
61255;DHT22;47128;47.530;8.584;2022-11-15T16:43:57;10.10;99.90
61255;DHT22;47128;47.530;8.584;2022-11-15T16:46:23;10.00;99.90
61255;DHT22;47128;47.530;8.584;2022-11-15T16:48:49;10.00;99.90
61255;DHT22;47128;47.530;8.584;2022-11-15T16:51:14;10.00;99.90
61255;DHT22;47128;47.530;8.584;2022-11-15T16:53:40;10.00;99.90
61255;DHT22;47128;47.530;8.584;2022-11-15T16:56:19;9.90;99.90
61255;DHT22;47128;47.530;8.584;2022-11-15T16:58:47;10.00;99.90
61255;DHT22;47128;47.530;8.584;2022-11-15T17:01:17;10.00;99.90
61255;DHT22;47128;47.530;8.584;2022-11-15T17:03:43;10.10;99.90
61255;DHT22;47128;47.530;8.584;2022-11-15T17:06:09;10.00;99.90
61255;DHT22;47128;47.530;8.584;2022-11-15T17:08:34;9.90;99.90
61255;DHT22;47128;47.530;8.584;2022-11-15T17:11:03;10.00;99.90
61255;DHT22;47128;47.530;8.584;2022-11-15T17:13:29;10.00;99.90
61255;DHT22;47128;47.530;8.584;2022-11-15T17:16:03;10.20;99.90
61255;DHT22;47128;47.530;8.584;2022-11-15T17:18:28;9.90;99.90
61255;DHT22;47128;47.530;8.584;2022-11-15T17:20:53;9.90;99.90
61255;DHT22;47128;47.530;8.584;2022-11-15T17:23:19;10.00;99.90
61255;DHT22;47128;47.530;8.584;2022-11-15T17:25:44;9.80;99.90
61255;DHT22;47128;47.530;8.584;2022-11-15T17:28:10;10.20;99.90
61255;DHT22;47128;47.530;8.584;2022-11-15T17:30:39;10.00;99.90
61255;DHT22;47128;47.530;8.584;2022-11-15T17:33:06;9.90;99.90
61255;DHT22;47128;47.530;8.584;2022-11-15T17:35:32;9.90;99.90
61255;DHT22;47128;47.530;8.584;2022-11-15T17:37:57;9.90;99.90
61255;DHT22;47128;47.530;8.584;2022-11-15T17:40:23;9.90;99.90
61255;DHT22;47128;47.530;8.584;2022-11-15T17:42:48;10.00;99.90
61255;DHT22;47128;47.530;8.584;2022-11-15T17:45:14;9.90;99.90
61255;DHT22;47128;47.530;8.584;2022-11-15T17:47:39;9.90;99.90
61255;DHT22;47128;47.530;8.584;2022-11-15T17:50:05;10.00;99.90
61255;DHT22;47128;47.530;8.584;2022-11-15T17:52:30;10.00;99.90
61255;DHT22;47128;47.530;8.584;2022-11-15T17:54:56;9.90;99.90
61255;DHT22;47128;47.530;8.584;2022-11-15T17:57:21;9.70;99.90
61255;DHT22;47128;47.530;8.584;2022-11-15T17:59:47;9.80;99.90
61255;DHT22;47128;47.530;8.584;2022-11-15T18:02:13;9.80;99.90
61255;DHT22;47128;47.530;8.584;2022-11-15T18:04:38;9.80;99.90
61255;DHT22;47128;47.530;8.584;2022-11-15T18:07:04;9.80;99.90
61255;DHT22;47128;47.530;8.584;2022-11-15T18:09:30;9.60;99.90
61255;DHT22;47128;47.530;8.584;2022-11-15T18:11:55;10.00;99.90
61255;DHT22;47128;47.530;8.584;2022-11-15T18:14:22;9.60;99.90
61255;DHT22;47128;47.530;8.584;2022-11-15T18:16:50;9.50;99.90
61255;DHT22;47128;47.530;8.584;2022-11-15T18:19:16;9.50;99.90
61255;DHT22;47128;47.530;8.584;2022-11-15T18:21:43;9.50;99.90
61255;DHT22;47128;47.530;8.584;2022-11-15T18:24:25;9.40;99.90
61255;DHT22;47128;47.530;8.584;2022-11-15T18:26:50;9.40;99.90
61255;DHT22;47128;47.530;8.584;2022-11-15T18:29:16;9.40;99.90
61255;DHT22;47128;47.530;8.584;2022-11-15T18:31:42;9.40;99.90
61255;DHT22;47128;47.530;8.584;2022-11-15T18:34:08;9.40;99.90
61255;DHT22;47128;47.530;8.584;2022-11-15T18:36:34;9.40;99.90
61255;DHT22;47128;47.530;8.584;2022-11-15T18:39:01;9.30;99.90
61255;DHT22;47128;47.530;8.584;2022-11-15T18:41:27;9.30;99.90
61255;DHT22;47128;47.530;8.584;2022-11-15T18:43:53;9.30;99.90
61255;DHT22;47128;47.530;8.584;2022-11-15T18:46:21;9.30;99.90
61255;DHT22;47128;47.530;8.584;2022-11-15T18:48:47;9.30;99.90
61255;DHT22;47128;47.530;8.584;2022-11-15T18:51:15;9.30;99.90
61255;DHT22;47128;47.530;8.584;2022-11-15T18:53:41;9.30;99.90
61255;DHT22;47128;47.530;8.584;2022-11-15T18:56:11;9.30;99.90
61255;DHT22;47128;47.530;8.584;2022-11-15T18:58:38;9.30;99.90
61255;DHT22;47128;47.530;8.584;2022-11-15T19:01:05;9.30;99.90